sensor_id;sensor_type;location;lat;lon;timestamp;P1;durP1;ratioP1;P2;durP2;ratioP2
69789;SDS011;57064;52.046;4.800;2023-09-30T00:01:21;18.63;;;9.45;;
69789;SDS011;57064;52.046;4.800;2023-09-30T00:03:47;20.58;;;9.90;;
69789;SDS011;57064;52.046;4.800;2023-09-30T00:06:13;23.40;;;9.50;;
69789;SDS011;57064;52.046;4.800;2023-09-30T00:08:40;19.65;;;9.52;;
69789;SDS011;57064;52.046;4.800;2023-09-30T00:11:08;24.30;;;10.48;;
69789;SDS011;57064;52.046;4.800;2023-09-30T00:13:34;19.10;;;9.93;;
69789;SDS011;57064;52.046;4.800;2023-09-30T00:16:00;21.30;;;9.85;;
69789;SDS011;57064;52.046;4.800;2023-09-30T00:18:26;21.75;;;9.60;;
69789;SDS011;57064;52.046;4.800;2023-09-30T00:20:53;28.92;;;10.52;;
69789;SDS011;57064;52.046;4.800;2023-09-30T00:23:19;23.48;;;10.48;;
69789;SDS011;57064;52.046;4.800;2023-09-30T00:25:46;21.50;;;10.13;;
69789;SDS011;57064;52.046;4.800;2023-09-30T00:28:16;24.70;;;11.00;;
69789;SDS011;57064;52.046;4.800;2023-09-30T00:30:42;20.20;;;9.95;;
69789;SDS011;57064;52.046;4.800;2023-09-30T00:33:12;22.60;;;10.68;;
69789;SDS011;57064;52.046;4.800;2023-09-30T00:35:38;27.65;;;10.43;;
69789;SDS011;57064;52.046;4.800;2023-09-30T00:38:04;23.77;;;10.90;;
69789;SDS011;57064;52.046;4.800;2023-09-30T00:40:31;23.35;;;10.27;;
69789;SDS011;57064;52.046;4.800;2023-09-30T00:42:57;27.35;;;11.13;;
69789;SDS011;57064;52.046;4.800;2023-09-30T00:45:23;24.67;;;11.52;;
69789;SDS011;57064;52.046;4.800;2023-09-30T00:47:50;24.05;;;11.43;;
69789;SDS011;57064;52.046;4.800;2023-09-30T00:50:16;24.38;;;12.30;;
69789;SDS011;57064;52.046;4.800;2023-09-30T00:52:44;27.50;;;11.57;;
69789;SDS011;57064;52.046;4.800;2023-09-30T00:55:11;21.70;;;10.98;;
69789;SDS011;57064;52.046;4.800;2023-09-30T00:57:38;25.02;;;11.98;;
69789;SDS011;57064;52.046;4.800;2023-09-30T01:00:05;27.90;;;11.85;;
69789;SDS011;57064;52.046;4.800;2023-09-30T01:02:32;25.02;;;11.85;;
69789;SDS011;57064;52.046;4.800;2023-09-30T01:04:59;27.23;;;11.55;;
69789;SDS011;57064;52.046;4.800;2023-09-30T01:07:27;28.83;;;11.35;;
69789;SDS011;57064;52.046;4.800;2023-09-30T01:09:53;33.70;;;12.52;;
69789;SDS011;57064;52.046;4.800;2023-09-30T01:12:19;25.00;;;11.82;;
69789;SDS011;57064;52.046;4.800;2023-09-30T01:14:45;26.90;;;12.73;;
69789;SDS011;57064;52.046;4.800;2023-09-30T01:17:11;30.10;;;13.07;;
69789;SDS011;57064;52.046;4.800;2023-09-30T01:19:38;28.10;;;12.45;;
69789;SDS011;57064;52.046;4.800;2023-09-30T01:22:05;25.25;;;11.55;;
69789;SDS011;57064;52.046;4.800;2023-09-30T01:24:38;28.50;;;12.85;;
69789;SDS011;57064;52.046;4.800;2023-09-30T01:27:05;33.30;;;13.23;;
69789;SDS011;57064;52.046;4.800;2023-09-30T01:29:31;26.40;;;11.27;;
69789;SDS011;57064;52.046;4.800;2023-09-30T01:31:57;33.20;;;13.25;;
69789;SDS011;57064;52.046;4.800;2023-09-30T01:34:23;29.45;;;12.55;;
69789;SDS011;57064;52.046;4.800;2023-09-30T01:36:50;30.90;;;13.93;;
69789;SDS011;57064;52.046;4.800;2023-09-30T01:39:16;30.95;;;13.80;;
69789;SDS011;57064;52.046;4.800;2023-09-30T01:41:43;33.28;;;14.55;;
69789;SDS011;57064;52.046;4.800;2023-09-30T01:44:09;34.22;;;14.20;;
69789;SDS011;57064;52.046;4.800;2023-09-30T01:46:35;33.70;;;13.88;;
69789;SDS011;57064;52.046;4.800;2023-09-30T01:49:01;31.00;;;14.27;;
69789;SDS011;57064;52.046;4.800;2023-09-30T01:51:29;40.63;;;16.92;;
69789;SDS011;57064;52.046;4.800;2023-09-30T01:53:55;35.20;;;14.20;;
69789;SDS011;57064;52.046;4.800;2023-09-30T01:56:21;38.83;;;15.25;;
69789;SDS011;57064;52.046;4.800;2023-09-30T01:58:47;43.42;;;16.67;;
69789;SDS011;57064;52.046;4.800;2023-09-30T02:01:14;48.03;;;16.45;;
69789;SDS011;57064;52.046;4.800;2023-09-30T02:03:40;44.50;;;16.45;;
69789;SDS011;57064;52.046;4.800;2023-09-30T02:06:06;41.35;;;17.42;;
69789;SDS011;57064;52.046;4.800;2023-09-30T02:08:33;34.90;;;15.07;;
69789;SDS011;57064;52.046;4.800;2023-09-30T02:11:01;43.03;;;17.02;;
69789;SDS011;57064;52.046;4.800;2023-09-30T02:13:28;46.28;;;16.73;;
69789;SDS011;57064;52.046;4.800;2023-09-30T02:15:56;42.00;;;16.05;;
69789;SDS011;57064;52.046;4.800;2023-09-30T02:18:22;38.83;;;16.52;;
69789;SDS011;57064;52.046;4.800;2023-09-30T02:20:48;43.03;;;16.58;;
69789;SDS011;57064;52.046;4.800;2023-09-30T02:23:16;47.60;;;18.42;;
69789;SDS011;57064;52.046;4.800;2023-09-30T02:25:42;42.15;;;18.67;;
69789;SDS011;57064;52.046;4.800;2023-09-30T02:28:11;44.10;;;17.23;;
69789;SDS011;57064;52.046;4.800;2023-09-30T02:30:37;46.17;;;17.45;;
69789;SDS011;57064;52.046;4.800;2023-09-30T02:33:04;44.55;;;17.55;;
69789;SDS011;57064;52.046;4.800;2023-09-30T02:35:31;44.35;;;17.63;;
69789;SDS011;57064;52.046;4.800;2023-09-30T02:37:57;42.70;;;17.98;;
69789;SDS011;57064;52.046;4.800;2023-09-30T02:40:24;48.22;;;18.77;;
69789;SDS011;57064;52.046;4.800;2023-09-30T02:42:50;47.65;;;19.88;;
69789;SDS011;57064;52.046;4.800;2023-09-30T02:45:17;45.22;;;18.13;;
69789;SDS011;57064;52.046;4.800;2023-09-30T02:47:43;46.35;;;19.17;;
69789;SDS011;57064;52.046;4.800;2023-09-30T02:50:09;47.42;;;19.42;;
69789;SDS011;57064;52.046;4.800;2023-09-30T02:52:36;47.70;;;19.95;;
69789;SDS011;57064;52.046;4.800;2023-09-30T02:55:05;42.63;;;18.10;;
69789;SDS011;57064;52.046;4.800;2023-09-30T02:57:33;45.55;;;19.70;;
69789;SDS011;57064;52.046;4.800;2023-09-30T03:00:00;45.67;;;19.15;;
69789;SDS011;57064;52.046;4.800;2023-09-30T03:02:51;46.05;;;19.27;;
69789;SDS011;57064;52.046;4.800;2023-09-30T03:05:18;62.63;;;20.17;;
69789;SDS011;57064;52.046;4.800;2023-09-30T03:07:45;45.42;;;19.67;;
69789;SDS011;57064;52.046;4.800;2023-09-30T03:10:12;52.50;;;20.83;;
69789;SDS011;57064;52.046;4.800;2023-09-30T03:12:39;49.80;;;19.67;;
69789;SDS011;57064;52.046;4.800;2023-09-30T03:15:05;46.17;;;20.15;;
69789;SDS011;57064;52.046;4.800;2023-09-30T03:17:32;41.80;;;18.45;;
69789;SDS011;57064;52.046;4.800;2023-09-30T03:19:58;57.25;;;20.30;;
69789;SDS011;57064;52.046;4.800;2023-09-30T03:22:26;54.45;;;20.38;;
69789;SDS011;57064;52.046;4.800;2023-09-30T03:24:52;46.35;;;19.98;;
69789;SDS011;57064;52.046;4.800;2023-09-30T03:27:19;46.50;;;20.00;;
69789;SDS011;57064;52.046;4.800;2023-09-30T03:29:45;57.90;;;21.23;;
69789;SDS011;57064;52.046;4.800;2023-09-30T03:32:12;53.33;;;19.80;;
69789;SDS011;57064;52.046;4.800;2023-09-30T03:34:38;52.70;;;20.50;;
69789;SDS011;57064;52.046;4.800;2023-09-30T03:37:09;43.20;;;19.40;;
69789;SDS011;57064;52.046;4.800;2023-09-30T03:39:35;48.95;;;20.63;;
69789;SDS011;57064;52.046;4.800;2023-09-30T03:42:02;50.42;;;21.60;;
69789;SDS011;57064;52.046;4.800;2023-09-30T03:44:30;50.53;;;21.35;;
69789;SDS011;57064;52.046;4.800;2023-09-30T03:46:56;41.78;;;20.20;;
69789;SDS011;57064;52.046;4.800;2023-09-30T03:49:24;50.80;;;20.55;;
69789;SDS011;57064;52.046;4.800;2023-09-30T03:51:50;48.05;;;20.33;;
69789;SDS011;57064;52.046;4.800;2023-09-30T03:54:18;53.72;;;22.48;;
69789;SDS011;57064;52.046;4.800;2023-09-30T03:56:44;46.95;;;20.90;;
69789;SDS011;57064;52.046;4.800;2023-09-30T03:59:12;47.72;;;20.63;;
69789;SDS011;57064;52.046;4.800;2023-09-30T04:01:38;50.30;;;20.80;;
69789;SDS011;57064;52.046;4.800;2023-09-30T04:04:06;52.38;;;20.52;;
69789;SDS011;57064;52.046;4.800;2023-09-30T04:06:33;52.47;;;21.60;;
69789;SDS011;57064;52.046;4.800;2023-09-30T04:09:04;53.28;;;20.83;;
69789;SDS011;57064;52.046;4.800;2023-09-30T04:11:35;62.27;;;21.83;;
69789;SDS011;57064;52.046;4.800;2023-09-30T04:14:02;49.42;;;20.73;;
69789;SDS011;57064;52.046;4.800;2023-09-30T04:16:30;56.60;;;22.60;;
69789;SDS011;57064;52.046;4.800;2023-09-30T04:18:57;51.15;;;21.08;;
69789;SDS011;57064;52.046;4.800;2023-09-30T04:21:23;55.15;;;20.63;;
69789;SDS011;57064;52.046;4.800;2023-09-30T04:23:49;55.30;;;21.95;;
69789;SDS011;57064;52.046;4.800;2023-09-30T04:26:15;50.17;;;20.65;;
69789;SDS011;57064;52.046;4.800;2023-09-30T04:28:41;52.63;;;22.27;;
69789;SDS011;57064;52.046;4.800;2023-09-30T04:31:08;51.22;;;21.80;;
69789;SDS011;57064;52.046;4.800;2023-09-30T04:33:35;57.00;;;21.00;;
69789;SDS011;57064;52.046;4.800;2023-09-30T04:36:01;51.08;;;21.80;;
69789;SDS011;57064;52.046;4.800;2023-09-30T04:38:28;59.05;;;23.52;;
69789;SDS011;57064;52.046;4.800;2023-09-30T04:40:56;51.50;;;21.92;;
69789;SDS011;57064;52.046;4.800;2023-09-30T04:43:23;51.80;;;21.70;;
69789;SDS011;57064;52.046;4.800;2023-09-30T04:45:49;58.78;;;21.77;;
69789;SDS011;57064;52.046;4.800;2023-09-30T04:48:17;51.08;;;21.10;;
69789;SDS011;57064;52.046;4.800;2023-09-30T04:50:43;51.22;;;21.05;;
69789;SDS011;57064;52.046;4.800;2023-09-30T04:53:10;55.05;;;21.33;;
69789;SDS011;57064;52.046;4.800;2023-09-30T04:55:38;48.00;;;19.92;;
69789;SDS011;57064;52.046;4.800;2023-09-30T04:58:05;55.40;;;22.23;;
69789;SDS011;57064;52.046;4.800;2023-09-30T05:00:31;51.97;;;21.83;;
69789;SDS011;57064;52.046;4.800;2023-09-30T05:02:58;53.28;;;22.83;;
69789;SDS011;57064;52.046;4.800;2023-09-30T05:05:24;49.85;;;22.75;;
69789;SDS011;57064;52.046;4.800;2023-09-30T05:07:50;44.60;;;21.27;;
69789;SDS011;57064;52.046;4.800;2023-09-30T05:10:16;53.53;;;22.42;;
69789;SDS011;57064;52.046;4.800;2023-09-30T05:12:43;56.03;;;23.27;;
69789;SDS011;57064;52.046;4.800;2023-09-30T05:15:12;58.97;;;23.20;;
69789;SDS011;57064;52.046;4.800;2023-09-30T05:17:40;54.55;;;23.50;;
69789;SDS011;57064;52.046;4.800;2023-09-30T05:20:08;55.75;;;24.63;;
69789;SDS011;57064;52.046;4.800;2023-09-30T05:22:38;57.25;;;23.90;;
69789;SDS011;57064;52.046;4.800;2023-09-30T05:27:37;60.35;;;24.73;;
69789;SDS011;57064;52.046;4.800;2023-09-30T05:30:04;73.03;;;26.25;;
69789;SDS011;57064;52.046;4.800;2023-09-30T05:32:31;63.75;;;26.02;;
69789;SDS011;57064;52.046;4.800;2023-09-30T05:35:06;70.82;;;27.33;;
69789;SDS011;57064;52.046;4.800;2023-09-30T05:37:41;72.93;;;27.95;;
69789;SDS011;57064;52.046;4.800;2023-09-30T05:40:10;61.08;;;27.00;;
69789;SDS011;57064;52.046;4.800;2023-09-30T05:42:47;66.43;;;27.92;;
69789;SDS011;57064;52.046;4.800;2023-09-30T05:45:14;70.43;;;29.15;;
69789;SDS011;57064;52.046;4.800;2023-09-30T05:47:41;70.65;;;30.20;;
69789;SDS011;57064;52.046;4.800;2023-09-30T05:50:09;69.97;;;30.45;;
69789;SDS011;57064;52.046;4.800;2023-09-30T05:52:39;71.53;;;30.17;;
69789;SDS011;57064;52.046;4.800;2023-09-30T05:55:06;91.10;;;32.28;;
69789;SDS011;57064;52.046;4.800;2023-09-30T05:57:32;80.28;;;33.05;;
69789;SDS011;57064;52.046;4.800;2023-09-30T05:59:58;80.60;;;32.10;;
69789;SDS011;57064;52.046;4.800;2023-09-30T06:02:25;77.63;;;31.88;;
69789;SDS011;57064;52.046;4.800;2023-09-30T06:04:51;79.20;;;33.78;;
69789;SDS011;57064;52.046;4.800;2023-09-30T06:07:18;75.68;;;32.92;;
69789;SDS011;57064;52.046;4.800;2023-09-30T06:09:45;79.60;;;33.05;;
69789;SDS011;57064;52.046;4.800;2023-09-30T06:12:14;76.13;;;33.50;;
69789;SDS011;57064;52.046;4.800;2023-09-30T06:14:40;77.45;;;33.88;;
69789;SDS011;57064;52.046;4.800;2023-09-30T06:17:07;77.40;;;34.30;;
69789;SDS011;57064;52.046;4.800;2023-09-30T06:19:33;94.75;;;36.33;;
69789;SDS011;57064;52.046;4.800;2023-09-30T06:21:59;84.00;;;34.75;;
69789;SDS011;57064;52.046;4.800;2023-09-30T06:24:28;94.60;;;37.03;;
69789;SDS011;57064;52.046;4.800;2023-09-30T06:26:54;94.75;;;36.83;;
69789;SDS011;57064;52.046;4.800;2023-09-30T06:29:20;94.32;;;37.75;;
69789;SDS011;57064;52.046;4.800;2023-09-30T06:31:46;94.25;;;38.95;;
69789;SDS011;57064;52.046;4.800;2023-09-30T06:34:12;93.72;;;37.30;;
69789;SDS011;57064;52.046;4.800;2023-09-30T06:36:39;98.60;;;40.47;;
69789;SDS011;57064;52.046;4.800;2023-09-30T06:39:05;100.38;;;40.75;;
69789;SDS011;57064;52.046;4.800;2023-09-30T06:41:32;101.30;;;42.17;;
69789;SDS011;57064;52.046;4.800;2023-09-30T06:43:58;97.13;;;39.97;;
69789;SDS011;57064;52.046;4.800;2023-09-30T06:46:24;101.15;;;41.28;;
69789;SDS011;57064;52.046;4.800;2023-09-30T06:51:22;107.60;;;41.78;;
69789;SDS011;57064;52.046;4.800;2023-09-30T06:53:51;96.85;;;40.90;;
69789;SDS011;57064;52.046;4.800;2023-09-30T06:56:18;98.10;;;41.95;;
69789;SDS011;57064;52.046;4.800;2023-09-30T06:58:44;94.82;;;42.03;;
69789;SDS011;57064;52.046;4.800;2023-09-30T07:01:14;95.07;;;40.22;;
69789;SDS011;57064;52.046;4.800;2023-09-30T07:03:42;113.47;;;45.53;;
69789;SDS011;57064;52.046;4.800;2023-09-30T07:06:08;103.93;;;43.85;;
69789;SDS011;57064;52.046;4.800;2023-09-30T07:08:35;102.38;;;44.10;;
69789;SDS011;57064;52.046;4.800;2023-09-30T07:11:01;95.03;;;42.72;;
69789;SDS011;57064;52.046;4.800;2023-09-30T07:13:27;91.80;;;42.28;;
69789;SDS011;57064;52.046;4.800;2023-09-30T07:15:53;99.50;;;44.30;;
69789;SDS011;57064;52.046;4.800;2023-09-30T07:18:19;85.20;;;40.10;;
69789;SDS011;57064;52.046;4.800;2023-09-30T07:20:45;96.82;;;43.65;;
69789;SDS011;57064;52.046;4.800;2023-09-30T07:23:11;87.68;;;40.25;;
69789;SDS011;57064;52.046;4.800;2023-09-30T07:25:38;94.82;;;42.70;;
69789;SDS011;57064;52.046;4.800;2023-09-30T07:28:04;87.72;;;39.25;;
69789;SDS011;57064;52.046;4.800;2023-09-30T07:30:36;88.53;;;39.45;;
69789;SDS011;57064;52.046;4.800;2023-09-30T07:33:02;74.63;;;39.10;;
69789;SDS011;57064;52.046;4.800;2023-09-30T07:35:28;85.47;;;40.40;;
69789;SDS011;57064;52.046;4.800;2023-09-30T07:37:54;78.28;;;39.33;;
69789;SDS011;57064;52.046;4.800;2023-09-30T07:40:21;73.30;;;36.13;;
69789;SDS011;57064;52.046;4.800;2023-09-30T07:42:47;72.00;;;33.92;;
69789;SDS011;57064;52.046;4.800;2023-09-30T07:45:13;70.57;;;33.40;;
69789;SDS011;57064;52.046;4.800;2023-09-30T07:47:43;70.25;;;35.00;;
69789;SDS011;57064;52.046;4.800;2023-09-30T07:50:11;65.50;;;33.83;;
69789;SDS011;57064;52.046;4.800;2023-09-30T07:52:37;67.55;;;33.67;;
69789;SDS011;57064;52.046;4.800;2023-09-30T07:55:08;66.43;;;32.17;;
69789;SDS011;57064;52.046;4.800;2023-09-30T07:57:34;63.70;;;32.45;;
69789;SDS011;57064;52.046;4.800;2023-09-30T08:00:01;65.75;;;31.70;;
69789;SDS011;57064;52.046;4.800;2023-09-30T08:02:32;57.00;;;30.08;;
69789;SDS011;57064;52.046;4.800;2023-09-30T08:04:59;62.95;;;30.13;;
69789;SDS011;57064;52.046;4.800;2023-09-30T08:07:27;58.15;;;29.13;;
69789;SDS011;57064;52.046;4.800;2023-09-30T08:09:53;64.00;;;29.65;;
69789;SDS011;57064;52.046;4.800;2023-09-30T08:12:19;59.25;;;30.17;;
69789;SDS011;57064;52.046;4.800;2023-09-30T08:14:45;55.50;;;28.63;;
69789;SDS011;57064;52.046;4.800;2023-09-30T08:17:11;57.05;;;27.77;;
69789;SDS011;57064;52.046;4.800;2023-09-30T08:19:37;55.08;;;27.55;;
69789;SDS011;57064;52.046;4.800;2023-09-30T08:22:05;49.40;;;25.73;;
69789;SDS011;57064;52.046;4.800;2023-09-30T08:24:31;56.80;;;24.95;;
69789;SDS011;57064;52.046;4.800;2023-09-30T08:26:57;45.92;;;23.17;;
69789;SDS011;57064;52.046;4.800;2023-09-30T08:29:24;43.50;;;22.60;;
69789;SDS011;57064;52.046;4.800;2023-09-30T08:31:50;41.05;;;20.58;;
69789;SDS011;57064;52.046;4.800;2023-09-30T08:34:16;34.67;;;18.50;;
69789;SDS011;57064;52.046;4.800;2023-09-30T08:36:44;32.47;;;17.25;;
69789;SDS011;57064;52.046;4.800;2023-09-30T08:39:11;29.85;;;16.65;;
69789;SDS011;57064;52.046;4.800;2023-09-30T08:41:37;31.85;;;15.40;;
69789;SDS011;57064;52.046;4.800;2023-09-30T08:44:04;30.40;;;14.85;;
69789;SDS011;57064;52.046;4.800;2023-09-30T08:46:31;29.58;;;14.95;;
69789;SDS011;57064;52.046;4.800;2023-09-30T08:48:59;26.98;;;13.60;;
69789;SDS011;57064;52.046;4.800;2023-09-30T08:51:28;28.30;;;13.23;;
69789;SDS011;57064;52.046;4.800;2023-09-30T08:53:55;31.30;;;13.07;;
69789;SDS011;57064;52.046;4.800;2023-09-30T08:56:24;24.65;;;12.02;;
69789;SDS011;57064;52.046;4.800;2023-09-30T08:58:57;27.65;;;12.32;;
69789;SDS011;57064;52.046;4.800;2023-09-30T09:01:27;23.40;;;11.80;;
69789;SDS011;57064;52.046;4.800;2023-09-30T09:03:55;25.02;;;11.20;;
69789;SDS011;57064;52.046;4.800;2023-09-30T09:06:22;22.27;;;10.77;;
69789;SDS011;57064;52.046;4.800;2023-09-30T09:08:50;19.10;;;10.18;;
69789;SDS011;57064;52.046;4.800;2023-09-30T09:11:16;23.48;;;10.55;;
69789;SDS011;57064;52.046;4.800;2023-09-30T09:16:17;19.02;;;9.07;;
69789;SDS011;57064;52.046;4.800;2023-09-30T09:18:44;16.77;;;8.85;;
69789;SDS011;57064;52.046;4.800;2023-09-30T09:21:13;14.85;;;8.45;;
69789;SDS011;57064;52.046;4.800;2023-09-30T09:23:40;15.43;;;8.25;;
69789;SDS011;57064;52.046;4.800;2023-09-30T09:26:07;19.83;;;9.48;;
69789;SDS011;57064;52.046;4.800;2023-09-30T09:28:35;18.83;;;8.50;;
69789;SDS011;57064;52.046;4.800;2023-09-30T09:31:19;17.65;;;8.57;;
69789;SDS011;57064;52.046;4.800;2023-09-30T09:33:47;15.45;;;8.60;;
69789;SDS011;57064;52.046;4.800;2023-09-30T09:36:14;16.48;;;8.50;;
69789;SDS011;57064;52.046;4.800;2023-09-30T09:38:44;14.73;;;7.82;;
69789;SDS011;57064;52.046;4.800;2023-09-30T09:41:15;18.27;;;7.68;;
69789;SDS011;57064;52.046;4.800;2023-09-30T09:43:42;14.55;;;7.97;;
69789;SDS011;57064;52.046;4.800;2023-09-30T09:46:09;15.35;;;6.68;;
69789;SDS011;57064;52.046;4.800;2023-09-30T09:48:36;17.27;;;7.55;;
69789;SDS011;57064;52.046;4.800;2023-09-30T09:51:05;13.63;;;6.25;;
69789;SDS011;57064;52.046;4.800;2023-09-30T09:53:34;12.63;;;5.45;;
69789;SDS011;57064;52.046;4.800;2023-09-30T09:56:03;13.38;;;5.80;;
69789;SDS011;57064;52.046;4.800;2023-09-30T09:58:34;15.85;;;6.57;;
69789;SDS011;57064;52.046;4.800;2023-09-30T10:01:04;17.08;;;5.95;;
69789;SDS011;57064;52.046;4.800;2023-09-30T10:03:31;13.80;;;5.90;;
69789;SDS011;57064;52.046;4.800;2023-09-30T10:05:58;12.02;;;4.90;;
69789;SDS011;57064;52.046;4.800;2023-09-30T10:08:31;7.97;;;3.17;;
69789;SDS011;57064;52.046;4.800;2023-09-30T10:11:07;7.78;;;2.78;;
69789;SDS011;57064;52.046;4.800;2023-09-30T10:13:54;10.35;;;3.20;;
69789;SDS011;57064;52.046;4.800;2023-09-30T10:19:13;10.23;;;3.85;;
69789;SDS011;57064;52.046;4.800;2023-09-30T10:24:50;11.85;;;3.97;;
69789;SDS011;57064;52.046;4.800;2023-09-30T10:29:47;8.43;;;2.92;;
69789;SDS011;57064;52.046;4.800;2023-09-30T10:32:19;13.55;;;3.58;;
69789;SDS011;57064;52.046;4.800;2023-09-30T10:34:48;8.57;;;3.35;;
69789;SDS011;57064;52.046;4.800;2023-09-30T10:39:56;8.90;;;3.03;;
69789;SDS011;57064;52.046;4.800;2023-09-30T10:42:42;10.05;;;3.13;;
69789;SDS011;57064;52.046;4.800;2023-09-30T10:55:59;8.57;;;2.80;;
69789;SDS011;57064;52.046;4.800;2023-09-30T10:58:38;9.02;;;3.13;;
69789;SDS011;57064;52.046;4.800;2023-09-30T11:01:04;8.73;;;2.70;;
69789;SDS011;57064;52.046;4.800;2023-09-30T11:03:30;8.63;;;3.08;;
69789;SDS011;57064;52.046;4.800;2023-09-30T11:05:56;7.88;;;2.63;;
69789;SDS011;57064;52.046;4.800;2023-09-30T11:08:23;8.85;;;3.28;;
69789;SDS011;57064;52.046;4.800;2023-09-30T11:10:51;10.10;;;3.45;;
69789;SDS011;57064;52.046;4.800;2023-09-30T11:13:18;8.77;;;3.45;;
69789;SDS011;57064;52.046;4.800;2023-09-30T11:15:45;11.05;;;2.63;;
69789;SDS011;57064;52.046;4.800;2023-09-30T11:18:13;7.70;;;2.80;;
69789;SDS011;57064;52.046;4.800;2023-09-30T11:20:39;8.13;;;3.47;;
69789;SDS011;57064;52.046;4.800;2023-09-30T11:23:07;10.73;;;3.72;;
69789;SDS011;57064;52.046;4.800;2023-09-30T11:25:37;8.23;;;3.03;;
69789;SDS011;57064;52.046;4.800;2023-09-30T11:28:17;10.85;;;3.47;;
69789;SDS011;57064;52.046;4.800;2023-09-30T11:30:54;7.70;;;2.05;;
69789;SDS011;57064;52.046;4.800;2023-09-30T11:33:24;11.30;;;2.47;;
69789;SDS011;57064;52.046;4.800;2023-09-30T11:38:29;7.68;;;2.15;;
69789;SDS011;57064;52.046;4.800;2023-09-30T11:41:00;9.48;;;3.15;;
69789;SDS011;57064;52.046;4.800;2023-09-30T11:43:31;8.75;;;2.47;;
69789;SDS011;57064;52.046;4.800;2023-09-30T11:46:08;8.73;;;2.97;;
69789;SDS011;57064;52.046;4.800;2023-09-30T11:48:36;9.50;;;2.85;;
69789;SDS011;57064;52.046;4.800;2023-09-30T11:51:03;10.15;;;3.00;;
69789;SDS011;57064;52.046;4.800;2023-09-30T11:53:29;11.10;;;3.20;;
69789;SDS011;57064;52.046;4.800;2023-09-30T11:55:59;11.98;;;3.20;;
69789;SDS011;57064;52.046;4.800;2023-09-30T11:58:30;14.13;;;3.83;;
69789;SDS011;57064;52.046;4.800;2023-09-30T12:00:58;11.82;;;3.20;;
69789;SDS011;57064;52.046;4.800;2023-09-30T12:03:25;10.48;;;2.95;;
69789;SDS011;57064;52.046;4.800;2023-09-30T12:05:52;10.48;;;3.13;;
69789;SDS011;57064;52.046;4.800;2023-09-30T12:08:20;8.20;;;3.22;;
69789;SDS011;57064;52.046;4.800;2023-09-30T12:10:49;11.73;;;2.90;;
69789;SDS011;57064;52.046;4.800;2023-09-30T12:13:15;9.45;;;2.80;;
69789;SDS011;57064;52.046;4.800;2023-09-30T12:15:43;8.40;;;2.85;;
69789;SDS011;57064;52.046;4.800;2023-09-30T12:18:09;8.80;;;2.90;;
69789;SDS011;57064;52.046;4.800;2023-09-30T12:20:38;9.52;;;2.40;;
69789;SDS011;57064;52.046;4.800;2023-09-30T12:23:06;7.85;;;2.30;;
69789;SDS011;57064;52.046;4.800;2023-09-30T12:25:32;7.93;;;2.47;;
69789;SDS011;57064;52.046;4.800;2023-09-30T12:27:58;8.32;;;3.03;;
69789;SDS011;57064;52.046;4.800;2023-09-30T12:30:25;8.23;;;2.53;;
69789;SDS011;57064;52.046;4.800;2023-09-30T12:32:51;8.05;;;2.45;;
69789;SDS011;57064;52.046;4.800;2023-09-30T12:35:20;5.10;;;1.98;;
69789;SDS011;57064;52.046;4.800;2023-09-30T12:37:47;11.80;;;2.67;;
69789;SDS011;57064;52.046;4.800;2023-09-30T12:40:13;7.93;;;2.35;;
69789;SDS011;57064;52.046;4.800;2023-09-30T12:42:42;12.90;;;2.72;;
69789;SDS011;57064;52.046;4.800;2023-09-30T12:45:08;7.20;;;2.22;;
69789;SDS011;57064;52.046;4.800;2023-09-30T12:47:34;6.10;;;2.10;;
69789;SDS011;57064;52.046;4.800;2023-09-30T12:50:00;10.45;;;2.67;;
69789;SDS011;57064;52.046;4.800;2023-09-30T12:52:28;11.93;;;2.40;;
69789;SDS011;57064;52.046;4.800;2023-09-30T12:54:55;7.20;;;2.33;;
69789;SDS011;57064;52.046;4.800;2023-09-30T12:57:21;8.95;;;2.35;;
69789;SDS011;57064;52.046;4.800;2023-09-30T12:59:47;9.55;;;2.05;;
69789;SDS011;57064;52.046;4.800;2023-09-30T13:02:14;7.30;;;2.47;;
69789;SDS011;57064;52.046;4.800;2023-09-30T13:04:43;7.55;;;2.15;;
69789;SDS011;57064;52.046;4.800;2023-09-30T13:07:10;7.07;;;2.65;;
69789;SDS011;57064;52.046;4.800;2023-09-30T13:09:40;10.65;;;3.55;;
69789;SDS011;57064;52.046;4.800;2023-09-30T13:12:07;7.57;;;2.65;;
69789;SDS011;57064;52.046;4.800;2023-09-30T13:14:33;9.23;;;2.80;;
69789;SDS011;57064;52.046;4.800;2023-09-30T13:16:59;8.00;;;3.05;;
69789;SDS011;57064;52.046;4.800;2023-09-30T13:19:29;11.27;;;3.40;;
69789;SDS011;57064;52.046;4.800;2023-09-30T13:21:55;7.25;;;2.92;;
69789;SDS011;57064;52.046;4.800;2023-09-30T13:24:22;9.40;;;2.67;;
69789;SDS011;57064;52.046;4.800;2023-09-30T13:26:48;9.18;;;3.38;;
69789;SDS011;57064;52.046;4.800;2023-09-30T13:29:17;8.93;;;2.72;;
69789;SDS011;57064;52.046;4.800;2023-09-30T13:31:43;8.00;;;2.70;;
69789;SDS011;57064;52.046;4.800;2023-09-30T13:34:10;9.45;;;3.35;;
69789;SDS011;57064;52.046;4.800;2023-09-30T13:36:37;9.02;;;2.88;;
69789;SDS011;57064;52.046;4.800;2023-09-30T13:39:03;12.05;;;2.92;;
69789;SDS011;57064;52.046;4.800;2023-09-30T13:41:33;11.02;;;3.40;;
69789;SDS011;57064;52.046;4.800;2023-09-30T13:44:00;7.60;;;2.40;;
69789;SDS011;57064;52.046;4.800;2023-09-30T13:46:26;6.43;;;2.90;;
69789;SDS011;57064;52.046;4.800;2023-09-30T13:48:54;10.15;;;2.80;;
69789;SDS011;57064;52.046;4.800;2023-09-30T13:51:23;11.52;;;3.28;;
69789;SDS011;57064;52.046;4.800;2023-09-30T13:53:49;10.73;;;3.25;;
69789;SDS011;57064;52.046;4.800;2023-09-30T13:56:15;8.48;;;2.72;;
69789;SDS011;57064;52.046;4.800;2023-09-30T13:58:42;10.20;;;3.25;;
69789;SDS011;57064;52.046;4.800;2023-09-30T14:01:08;7.50;;;2.70;;
69789;SDS011;57064;52.046;4.800;2023-09-30T14:03:37;10.98;;;2.90;;
69789;SDS011;57064;52.046;4.800;2023-09-30T14:06:09;13.18;;;3.10;;
69789;SDS011;57064;52.046;4.800;2023-09-30T14:08:36;10.35;;;3.03;;
69789;SDS011;57064;52.046;4.800;2023-09-30T14:11:02;8.18;;;3.20;;
69789;SDS011;57064;52.046;4.800;2023-09-30T14:13:29;9.38;;;2.95;;
69789;SDS011;57064;52.046;4.800;2023-09-30T14:15:56;7.88;;;2.97;;
69789;SDS011;57064;52.046;4.800;2023-09-30T14:18:22;10.80;;;2.97;;
69789;SDS011;57064;52.046;4.800;2023-09-30T14:20:48;9.45;;;3.35;;
69789;SDS011;57064;52.046;4.800;2023-09-30T14:23:15;8.90;;;3.22;;
69789;SDS011;57064;52.046;4.800;2023-09-30T14:25:41;9.55;;;3.63;;
69789;SDS011;57064;52.046;4.800;2023-09-30T14:28:07;9.45;;;3.60;;
69789;SDS011;57064;52.046;4.800;2023-09-30T14:30:33;9.25;;;3.72;;
69789;SDS011;57064;52.046;4.800;2023-09-30T14:32:59;14.52;;;3.50;;
69789;SDS011;57064;52.046;4.800;2023-09-30T14:35:25;12.55;;;3.60;;
69789;SDS011;57064;52.046;4.800;2023-09-30T14:37:51;12.20;;;3.22;;
69789;SDS011;57064;52.046;4.800;2023-09-30T14:40:19;12.48;;;3.58;;
69789;SDS011;57064;52.046;4.800;2023-09-30T14:42:45;8.63;;;3.08;;
69789;SDS011;57064;52.046;4.800;2023-09-30T14:45:11;11.73;;;3.20;;
69789;SDS011;57064;52.046;4.800;2023-09-30T14:47:37;9.63;;;3.30;;
69789;SDS011;57064;52.046;4.800;2023-09-30T14:50:06;10.73;;;3.65;;
69789;SDS011;57064;52.046;4.800;2023-09-30T14:52:33;8.20;;;3.17;;
69789;SDS011;57064;52.046;4.800;2023-09-30T14:54:59;9.65;;;2.40;;
69789;SDS011;57064;52.046;4.800;2023-09-30T14:57:25;12.38;;;2.95;;
69789;SDS011;57064;52.046;4.800;2023-09-30T14:59:51;7.72;;;2.35;;
69789;SDS011;57064;52.046;4.800;2023-09-30T15:02:17;11.15;;;2.72;;